createdAt,value
2023-02-09T00:01:49.393Z,14.60
2023-02-09T00:04:17.252Z,18.10
2023-02-09T00:06:45.128Z,17.80
2023-02-09T00:09:12.936Z,28.30
2023-02-09T00:11:59.527Z,28.60
2023-02-09T00:14:28.310Z,31.60
2023-02-09T00:16:56.132Z,17.30
2023-02-09T00:19:24.014Z,35.20
2023-02-09T00:21:51.910Z,13.90
2023-02-09T00:24:19.890Z,23.50
2023-02-09T00:26:47.752Z,28.80
2023-02-09T00:29:17.414Z,31.50
2023-02-09T00:31:45.335Z,23.10
2023-02-09T00:34:13.401Z,29.20
2023-02-09T00:36:41.364Z,23.60
2023-02-09T00:39:09.417Z,15.80
2023-02-09T00:41:56.773Z,31.90
2023-02-09T00:44:25.057Z,18.80
2023-02-09T00:46:52.869Z,28.20
2023-02-09T00:49:20.818Z,22.30
2023-02-09T00:51:48.720Z,28.90
2023-02-09T00:54:19.943Z,20.30
2023-02-09T00:56:47.786Z,24.60
2023-02-09T00:59:16.748Z,31.70
2023-02-09T01:01:44.768Z,28.50
2023-02-09T01:04:12.729Z,29.90
2023-02-09T01:06:40.806Z,33.70
2023-02-09T01:09:08.643Z,26.80
2023-02-09T01:11:36.512Z,29.70
2023-02-09T01:14:04.712Z,30.60
2023-02-09T01:16:33.292Z,32.40
2023-02-09T01:19:04.196Z,14.40
2023-02-09T01:21:32.472Z,34.60
2023-02-09T01:24:00.398Z,22.30
2023-02-09T01:26:28.277Z,23.10
2023-02-09T01:28:56.866Z,11.30
2023-02-09T01:31:32.824Z,20.40
2023-02-09T01:34:04.007Z,22.50
2023-02-09T01:36:33.517Z,17.40
2023-02-09T01:39:03.857Z,24.90
2023-02-09T01:41:34.319Z,16.80
2023-02-09T01:44:27.182Z,25.90
2023-02-09T01:46:55.015Z,29.00
2023-02-09T01:49:27.959Z,23.40
2023-02-09T01:52:10.760Z,20.50
2023-02-09T01:54:51.542Z,23.10
2023-02-09T01:57:27.724Z,17.70
2023-02-09T02:00:07.480Z,28.70
2023-02-09T02:02:36.083Z,34.10
2023-02-09T02:05:08.087Z,16.60
2023-02-09T02:07:48.894Z,34.00
2023-02-09T02:10:17.112Z,36.30
2023-02-09T02:12:45.853Z,27.30
2023-02-09T02:15:13.891Z,32.30
2023-02-09T02:18:19.524Z,19.90
2023-02-09T02:21:27.926Z,31.30
2023-02-09T02:24:51.844Z,26.00
2023-02-09T02:27:39.401Z,18.90
2023-02-09T02:30:48.771Z,20.10
2023-02-09T02:33:34.506Z,26.10
2023-02-09T02:36:31.274Z,25.90
2023-02-09T02:39:22.361Z,30.10
2023-02-09T02:42:21.563Z,42.10
2023-02-09T02:45:09.419Z,28.60
2023-02-09T02:47:42.489Z,27.50
2023-02-09T02:50:22.099Z,29.90
2023-02-09T02:52:56.637Z,34.00
2023-02-09T02:55:31.649Z,22.20
2023-02-09T02:58:06.651Z,26.10
2023-02-09T03:00:43.264Z,21.00
2023-02-09T03:03:21.975Z,18.80
2023-02-09T03:05:51.607Z,23.60
2023-02-09T03:08:20.003Z,31.40
2023-02-09T03:10:48.539Z,36.40
2023-02-09T03:13:50.291Z,24.70
2023-02-09T03:16:31.152Z,24.00
2023-02-09T03:19:33.384Z,35.00
2023-02-09T03:22:35.528Z,22.50
2023-02-09T03:25:23.086Z,33.60
2023-02-09T03:28:09.649Z,35.90
2023-02-09T03:30:42.223Z,34.60
2023-02-09T03:33:24.089Z,28.70
2023-02-09T03:36:01.258Z,38.30
2023-02-09T03:38:29.148Z,35.80
2023-02-09T03:40:57.648Z,40.40
2023-02-09T03:43:45.531Z,35.10
2023-02-09T03:46:13.383Z,40.90
2023-02-09T03:48:41.205Z,38.60
2023-02-09T03:51:09.048Z,41.00
2023-02-09T03:53:37.632Z,41.20
2023-02-09T03:56:09.470Z,38.50
2023-02-09T03:58:37.806Z,39.60
2023-02-09T04:01:09.546Z,42.40
2023-02-09T04:03:39.980Z,44.70
2023-02-09T04:06:12.115Z,46.30
2023-02-09T04:08:40.055Z,40.60
2023-02-09T04:11:07.925Z,39.60
2023-02-09T04:13:35.790Z,46.20
2023-02-09T04:16:03.948Z,41.80
2023-02-09T04:18:31.786Z,42.80
2023-02-09T04:20:59.638Z,49.80
2023-02-09T04:23:27.519Z,50.60
2023-02-09T04:25:55.336Z,52.60
2023-02-09T04:28:23.380Z,49.80
2023-02-09T04:30:56.064Z,46.60
2023-02-09T04:33:25.529Z,41.70
2023-02-09T04:35:53.703Z,38.60
2023-02-09T04:38:22.557Z,40.00
2023-02-09T04:40:54.079Z,42.00
2023-02-09T04:43:23.380Z,39.90
2023-02-09T04:45:54.509Z,43.80
2023-02-09T04:48:28.584Z,57.20
2023-02-09T04:50:57.051Z,47.70
2023-02-09T04:53:25.360Z,47.70
2023-02-09T04:55:53.205Z,46.30
2023-02-09T04:58:41.322Z,47.40
2023-02-09T05:01:15.348Z,43.90
2023-02-09T05:03:43.251Z,36.80
2023-02-09T05:06:11.271Z,30.90
2023-02-09T05:08:39.336Z,28.60
2023-02-09T05:11:07.274Z,19.10
2023-02-09T05:13:35.281Z,21.90
2023-02-09T05:16:09.618Z,25.70
2023-02-09T05:18:37.616Z,19.70
2023-02-09T05:21:05.860Z,29.60
2023-02-09T05:23:34.139Z,25.30
2023-02-09T05:26:02.029Z,25.60
2023-02-09T05:28:29.973Z,27.10
2023-02-09T05:30:57.967Z,23.30
2023-02-09T05:33:26.801Z,30.70
2023-02-09T05:35:58.184Z,24.10
2023-02-09T05:38:26.070Z,23.80
2023-02-09T05:40:53.953Z,28.30
2023-02-09T05:43:21.904Z,22.30
2023-02-09T05:45:49.749Z,35.90
2023-02-09T05:48:17.597Z,42.70
2023-02-09T05:50:45.706Z,37.50
2023-02-09T05:53:15.199Z,31.10
2023-02-09T05:55:44.453Z,20.10
2023-02-09T05:58:12.377Z,21.60
2023-02-09T06:00:40.176Z,20.30
2023-02-09T06:03:08.064Z,21.60
2023-02-09T06:05:35.999Z,27.40
2023-02-09T06:08:04.089Z,30.50
2023-02-09T06:10:31.912Z,36.00
2023-02-09T06:12:59.837Z,38.90
2023-02-09T06:15:27.927Z,25.90
2023-02-09T06:18:17.335Z,18.70
2023-02-09T06:20:45.476Z,39.70
2023-02-09T06:23:15.654Z,32.00
2023-02-09T06:25:43.481Z,27.00
2023-02-09T06:28:11.462Z,26.50
2023-02-09T06:30:39.422Z,23.90
2023-02-09T06:33:07.427Z,29.10
2023-02-09T06:35:35.396Z,36.70
2023-02-09T06:38:03.226Z,16.80
2023-02-09T06:40:31.097Z,30.40
2023-02-09T06:42:59.013Z,25.60
2023-02-09T06:45:27.240Z,34.70
2023-02-09T06:47:55.099Z,29.20
2023-02-09T06:50:23.095Z,19.10
2023-02-09T06:52:51.162Z,28.20
2023-02-09T06:55:19.160Z,36.80
2023-02-09T06:57:49.657Z,24.90
2023-02-09T07:00:18.718Z,29.30
2023-02-09T07:02:47.583Z,19.20
2023-02-09T07:05:17.279Z,25.60
2023-02-09T07:07:46.331Z,24.40
2023-02-09T07:10:19.303Z,31.90
2023-02-09T07:12:47.220Z,34.20
2023-02-09T07:15:15.423Z,51.30
2023-02-09T07:17:43.253Z,32.00
2023-02-09T07:20:11.758Z,43.40
2023-02-09T07:22:39.620Z,41.90
2023-02-09T07:25:07.781Z,25.70
2023-02-09T07:27:36.128Z,33.30
2023-02-09T07:30:04.378Z,44.10
2023-02-09T07:32:34.032Z,38.10
2023-02-09T07:35:01.920Z,34.90
2023-02-09T07:37:29.758Z,38.10
2023-02-09T07:39:58.027Z,31.80
2023-02-09T07:42:25.940Z,40.20
2023-02-09T07:44:53.734Z,28.90
2023-02-09T07:47:21.615Z,34.90
2023-02-09T07:49:49.533Z,45.80
2023-02-09T07:52:17.363Z,33.80
2023-02-09T07:54:45.151Z,39.70
2023-02-09T07:57:13.947Z,29.40
2023-02-09T07:59:41.699Z,27.70
2023-02-09T08:02:26.582Z,31.10
2023-02-09T08:05:00.729Z,24.30
2023-02-09T08:07:30.028Z,29.80
2023-02-09T08:09:58.039Z,21.10
2023-02-09T08:12:48.395Z,24.10
2023-02-09T08:15:21.317Z,37.70
2023-02-09T08:17:53.310Z,25.00
2023-02-09T08:20:27.529Z,43.10
2023-02-09T08:23:04.036Z,23.50
2023-02-09T08:25:33.037Z,33.10
2023-02-09T08:28:03.338Z,40.30
2023-02-09T08:30:31.643Z,40.70
2023-02-09T08:32:59.454Z,40.70
2023-02-09T08:35:28.713Z,30.60
2023-02-09T08:38:03.362Z,31.80
2023-02-09T08:40:32.493Z,30.80
2023-02-09T08:43:00.402Z,39.30
2023-02-09T08:45:29.098Z,33.30
2023-02-09T08:47:57.092Z,21.90
2023-02-09T08:50:24.964Z,40.40
2023-02-09T08:52:59.360Z,44.30
2023-02-09T08:55:27.236Z,42.60
2023-02-09T08:57:55.074Z,39.60
2023-02-09T09:00:22.994Z,24.50
2023-02-09T09:02:50.925Z,34.50
2023-02-09T09:05:19.051Z,43.50
2023-02-09T09:07:48.271Z,31.20
2023-02-09T09:10:16.489Z,30.70
2023-02-09T09:12:45.072Z,35.30
2023-02-09T09:15:12.875Z,22.50
2023-02-09T09:17:40.741Z,24.50
2023-02-09T09:20:09.576Z,34.10
2023-02-09T09:22:37.447Z,40.40
2023-02-09T09:25:06.614Z,27.40
2023-02-09T09:27:37.518Z,31.90
2023-02-09T09:30:06.338Z,39.90
2023-02-09T09:32:34.283Z,33.80
2023-02-09T09:35:03.669Z,40.90
2023-02-09T09:37:33.089Z,43.90
2023-02-09T09:40:00.944Z,51.30
2023-02-09T09:42:38.504Z,48.70
2023-02-09T09:45:14.406Z,25.20
2023-02-09T09:47:44.263Z,42.10
2023-02-09T09:50:39.264Z,30.10
2023-02-09T09:53:33.811Z,34.30
2023-02-09T09:56:09.257Z,29.70
2023-02-09T09:58:44.835Z,30.30
2023-02-09T10:01:18.934Z,29.10
2023-02-09T10:03:47.196Z,27.80
2023-02-09T10:06:20.600Z,29.20
2023-02-09T10:09:01.919Z,22.80
2023-02-09T10:11:48.710Z,29.10
2023-02-09T10:14:16.608Z,43.10
2023-02-09T10:16:45.520Z,29.60
2023-02-09T10:19:27.024Z,27.00
2023-02-09T10:21:55.575Z,28.80
2023-02-09T10:24:34.649Z,29.00
2023-02-09T10:27:09.332Z,28.00
2023-02-09T10:29:37.283Z,31.20
2023-02-09T10:32:15.272Z,31.20
2023-02-09T10:34:51.254Z,26.10
2023-02-09T10:37:24.181Z,25.30
2023-02-09T10:40:16.031Z,22.90
2023-02-09T10:42:57.677Z,24.80
2023-02-09T10:45:47.432Z,35.40
2023-02-09T10:48:20.697Z,31.90
2023-02-09T10:50:59.062Z,33.40
2023-02-09T10:53:35.242Z,32.40
2023-02-09T10:56:22.019Z,19.90
2023-02-09T10:59:02.255Z,25.50
2023-02-09T11:01:42.071Z,29.40
2023-02-09T11:04:23.837Z,36.20
2023-02-09T11:07:20.022Z,33.10
2023-02-09T11:09:52.688Z,38.20
2023-02-09T11:12:22.861Z,33.20
2023-02-09T11:14:50.845Z,35.60
2023-02-09T11:17:48.391Z,35.70
2023-02-09T11:20:42.109Z,32.80
2023-02-09T11:23:44.648Z,30.00
2023-02-09T11:26:39.675Z,24.40
2023-02-09T11:29:55.847Z,20.00
2023-02-09T11:32:41.143Z,33.20
2023-02-09T11:35:13.313Z,33.90
2023-02-09T11:38:02.046Z,38.90
2023-02-09T11:40:51.690Z,24.90
2023-02-09T11:43:30.388Z,38.80
2023-02-09T11:46:18.771Z,25.10
2023-02-09T11:49:18.039Z,28.50
2023-02-09T11:51:49.440Z,42.30
2023-02-09T11:54:31.900Z,29.90
2023-02-09T11:57:05.500Z,30.40
2023-02-09T11:59:41.298Z,33.10
2023-02-09T12:02:37.662Z,36.80
2023-02-09T12:05:11.253Z,38.90
2023-02-09T12:07:56.753Z,31.90
2023-02-09T12:10:54.331Z,32.00
2023-02-09T12:14:02.034Z,26.20
2023-02-09T12:16:44.145Z,21.70
2023-02-09T12:19:37.767Z,30.50
2023-02-09T12:22:42.945Z,32.10
2023-02-09T12:25:51.323Z,37.60
2023-02-09T12:28:28.332Z,30.30
2023-02-09T12:31:15.876Z,24.50
2023-02-09T12:33:46.568Z,31.00
2023-02-09T12:36:14.360Z,30.60
2023-02-09T12:38:56.432Z,22.40
2023-02-09T12:41:33.972Z,31.50
2023-02-09T12:44:24.779Z,28.60
2023-02-09T12:46:57.880Z,23.00
2023-02-09T12:49:28.411Z,25.70
2023-02-09T12:52:02.196Z,22.20
2023-02-09T12:54:49.132Z,26.00
2023-02-09T12:57:17.250Z,18.10
2023-02-09T12:59:51.563Z,33.90
2023-02-09T13:02:56.308Z,24.60
2023-02-09T13:05:39.121Z,24.70
2023-02-09T13:08:24.007Z,28.10
2023-02-09T13:11:05.636Z,26.80
2023-02-09T13:13:46.276Z,19.00
2023-02-09T13:16:23.227Z,23.50
2023-02-09T13:19:10.016Z,23.70
2023-02-09T13:22:26.084Z,20.60
2023-02-09T13:25:17.591Z,18.70
2023-02-09T13:27:50.242Z,31.00
2023-02-09T13:30:32.306Z,27.60
2023-02-09T13:33:23.817Z,32.20
2023-02-09T13:36:00.846Z,24.30
2023-02-09T13:38:34.904Z,20.40
2023-02-09T13:41:06.533Z,35.60
2023-02-09T13:43:39.271Z,22.10
2023-02-09T13:46:07.339Z,32.60
2023-02-09T13:48:39.197Z,24.60
2023-02-09T13:51:20.088Z,22.60
2023-02-09T13:53:59.859Z,23.40
2023-02-09T13:56:32.850Z,20.60
2023-02-09T13:59:01.312Z,20.20
2023-02-09T14:01:34.887Z,30.10
2023-02-09T14:04:29.662Z,20.40
2023-02-09T14:07:14.780Z,26.90
2023-02-09T14:10:06.816Z,17.40
2023-02-09T14:12:52.810Z,25.10
2023-02-09T14:15:49.243Z,34.70
2023-02-09T14:18:47.325Z,36.60
2023-02-09T14:21:43.353Z,26.20
2023-02-09T14:24:23.947Z,22.40
2023-02-09T14:27:27.193Z,18.10
2023-02-09T14:29:56.178Z,24.40
2023-02-09T14:32:40.552Z,28.00
2023-02-09T14:35:31.359Z,28.00
2023-02-09T14:38:03.037Z,21.60
2023-02-09T14:40:34.758Z,28.10
2023-02-09T14:43:10.518Z,24.50
2023-02-09T14:45:48.255Z,21.00
2023-02-09T14:48:28.773Z,31.70
2023-02-09T14:51:10.908Z,18.70
2023-02-09T14:53:43.636Z,24.10
2023-02-09T14:56:30.549Z,26.00
2023-02-09T14:58:58.419Z,30.10
2023-02-09T15:01:26.326Z,27.50
2023-02-09T15:03:54.340Z,32.30
2023-02-09T15:06:23.007Z,25.90
2023-02-09T15:08:50.886Z,25.90
2023-02-09T15:11:42.924Z,27.00
2023-02-09T15:14:11.820Z,24.30
2023-02-09T15:16:39.769Z,23.20
2023-02-09T15:19:16.905Z,25.10
2023-02-09T15:21:44.797Z,26.20
2023-02-09T15:24:12.872Z,29.30
2023-02-09T15:26:41.036Z,22.30
2023-02-09T15:29:15.710Z,28.00
2023-02-09T15:31:43.791Z,28.60
2023-02-09T15:34:13.216Z,25.30
2023-02-09T15:36:42.276Z,31.50
2023-02-09T15:39:28.119Z,30.00
2023-02-09T15:42:14.735Z,27.60
2023-02-09T15:45:01.755Z,27.00
2023-02-09T15:47:48.485Z,21.00
2023-02-09T15:50:16.992Z,20.50
2023-02-09T15:52:44.989Z,19.60
2023-02-09T15:55:20.183Z,27.40
2023-02-09T15:57:52.416Z,23.00
2023-02-09T16:00:25.685Z,17.30
2023-02-09T16:02:58.478Z,23.90
2023-02-09T16:05:30.315Z,43.30
2023-02-09T16:08:01.342Z,32.10
2023-02-09T16:10:33.385Z,22.30
2023-02-09T16:13:06.576Z,31.40
2023-02-09T16:15:34.662Z,28.00
2023-02-09T16:18:03.032Z,21.70
2023-02-09T16:20:33.114Z,21.60
2023-02-09T16:23:11.727Z,28.40
2023-02-09T16:25:48.860Z,21.50
2023-02-09T16:28:17.665Z,19.60
2023-02-09T16:30:56.927Z,24.40
2023-02-09T16:33:30.049Z,30.30
2023-02-09T16:36:02.821Z,21.20
2023-02-09T16:38:43.512Z,31.40
2023-02-09T16:41:36.469Z,24.70
2023-02-09T16:44:28.547Z,20.90
2023-02-09T16:47:00.765Z,31.00
2023-02-09T16:50:07.682Z,22.80
2023-02-09T16:52:45.989Z,25.40
2023-02-09T16:55:31.112Z,23.20
2023-02-09T16:58:06.724Z,22.40
2023-02-09T17:00:40.781Z,27.10
2023-02-09T17:03:17.576Z,27.00
2023-02-09T17:05:52.441Z,21.30
2023-02-09T17:08:32.994Z,19.20
2023-02-09T17:11:04.176Z,20.70
2023-02-09T17:13:34.516Z,17.70
2023-02-09T17:16:06.674Z,25.90
2023-02-09T17:18:40.746Z,18.10
2023-02-09T17:21:15.318Z,16.50
2023-02-09T17:23:43.924Z,18.60
2023-02-09T17:26:13.667Z,27.30
2023-02-09T17:28:48.439Z,24.80
2023-02-09T17:31:25.907Z,30.50
2023-02-09T17:34:00.955Z,26.60
2023-02-09T17:36:30.494Z,19.40
2023-02-09T17:39:00.489Z,26.10
2023-02-09T17:41:38.503Z,29.40
2023-02-09T17:44:44.920Z,18.00
2023-02-09T17:47:19.808Z,25.80
2023-02-09T17:49:50.379Z,28.90
2023-02-09T17:52:22.740Z,23.10
2023-02-09T17:54:51.165Z,26.10
2023-02-09T17:57:21.154Z,26.00
2023-02-09T17:59:49.309Z,16.20
2023-02-09T18:02:20.640Z,25.20
2023-02-09T18:04:48.955Z,15.90
2023-02-09T18:07:20.656Z,15.90
2023-02-09T18:09:49.021Z,22.70
2023-02-09T18:12:24.151Z,22.20
2023-02-09T18:14:52.688Z,18.90
2023-02-09T18:17:20.923Z,19.10
2023-02-09T18:19:48.853Z,16.30
2023-02-09T18:22:17.897Z,20.70
2023-02-09T18:24:46.339Z,28.30
2023-02-09T18:27:21.194Z,21.40
2023-02-09T18:29:49.087Z,20.10
2023-02-09T18:32:17.925Z,21.00
2023-02-09T18:34:45.762Z,15.20
2023-02-09T18:37:15.915Z,25.60
2023-02-09T18:39:46.776Z,20.10
2023-02-09T18:42:20.064Z,28.10
2023-02-09T18:44:50.705Z,21.10
2023-02-09T18:47:20.317Z,20.40
2023-02-09T18:49:48.591Z,19.40
2023-02-09T18:52:21.236Z,26.30
2023-02-09T18:54:50.049Z,19.90
2023-02-09T18:57:28.108Z,23.80
2023-02-09T19:00:07.719Z,21.60
2023-02-09T19:02:35.841Z,23.90
2023-02-09T19:05:06.431Z,24.00
2023-02-09T19:07:39.467Z,21.00
2023-02-09T19:10:11.870Z,24.60
2023-02-09T19:12:41.724Z,20.60
2023-02-09T19:15:10.172Z,24.80
2023-02-09T19:17:40.430Z,18.50
2023-02-09T19:20:22.196Z,14.20
2023-02-09T19:22:53.767Z,27.00
2023-02-09T19:25:25.976Z,19.10
2023-02-09T19:27:54.557Z,14.60
2023-02-09T19:30:25.203Z,17.60
2023-02-09T19:33:02.127Z,14.10
2023-02-09T19:35:30.173Z,18.00
2023-02-09T19:37:58.794Z,12.50
2023-02-09T19:40:36.463Z,15.50
2023-02-09T19:43:06.091Z,23.70
2023-02-09T19:45:37.927Z,20.90
2023-02-09T19:48:08.363Z,16.90
2023-02-09T19:50:37.110Z,15.20
2023-02-09T19:53:07.840Z,18.50
2023-02-09T19:55:36.981Z,15.60
2023-02-09T19:58:04.957Z,13.60
2023-02-09T20:00:32.913Z,21.20
2023-02-09T20:03:00.842Z,16.40
2023-02-09T20:05:28.841Z,12.50
2023-02-09T20:07:57.278Z,17.40
2023-02-09T20:10:25.267Z,16.80
2023-02-09T20:12:53.107Z,14.70
2023-02-09T20:15:21.037Z,16.70
2023-02-09T20:17:49.100Z,18.30
2023-02-09T20:20:17.173Z,15.90
2023-02-09T20:22:48.396Z,12.60
2023-02-09T20:25:17.836Z,13.60
2023-02-09T20:27:49.826Z,15.40
2023-02-09T20:30:18.164Z,11.60
2023-02-09T20:32:46.083Z,14.20
2023-02-09T20:35:14.157Z,17.20
2023-02-09T20:37:42.430Z,14.20
2023-02-09T20:40:11.954Z,19.10
2023-02-09T20:42:58.630Z,16.40
2023-02-09T20:45:46.932Z,11.20
2023-02-09T20:48:15.104Z,13.80
2023-02-09T20:50:45.010Z,14.40
2023-02-09T20:53:13.302Z,12.10
2023-02-09T20:55:42.871Z,14.10
2023-02-09T20:58:13.856Z,13.30
2023-02-09T21:00:43.046Z,15.20
2023-02-09T21:03:12.191Z,10.50
2023-02-09T21:05:40.272Z,9.90
2023-02-09T21:08:09.500Z,12.10
2023-02-09T21:10:38.629Z,11.90
2023-02-09T21:13:12.521Z,14.00
2023-02-09T21:15:42.338Z,14.00
2023-02-09T21:18:10.701Z,11.60
2023-02-09T21:20:39.097Z,9.70
2023-02-09T21:23:10.388Z,10.70
2023-02-09T21:25:38.469Z,8.90
2023-02-09T21:28:06.716Z,9.40
2023-02-09T21:30:34.956Z,13.20
2023-02-09T21:33:02.961Z,13.50
2023-02-09T21:35:30.888Z,17.00
2023-02-09T21:37:58.757Z,10.40
2023-02-09T21:40:26.739Z,9.50
2023-02-09T21:42:57.061Z,13.20
2023-02-09T21:45:26.400Z,13.50
2023-02-09T21:47:54.235Z,11.10
2023-02-09T21:50:22.173Z,13.80
2023-02-09T21:52:50.095Z,14.50
2023-02-09T21:55:18.126Z,10.80
2023-02-09T21:57:45.991Z,11.00
2023-02-09T22:00:14.820Z,11.20
2023-02-09T22:02:42.896Z,11.00
2023-02-09T22:05:12.018Z,11.90
2023-02-09T22:07:39.892Z,13.40
2023-02-09T22:10:08.192Z,13.80
2023-02-09T22:12:36.513Z,12.60
2023-02-09T22:15:05.167Z,16.70
2023-02-09T22:17:35.899Z,11.20
2023-02-09T22:20:05.241Z,12.80
2023-02-09T22:22:33.429Z,10.80
2023-02-09T22:25:01.273Z,14.30
2023-02-09T22:27:29.161Z,14.30
2023-02-09T22:29:57.003Z,11.30
2023-02-09T22:32:24.924Z,13.60
2023-02-09T22:34:52.735Z,9.10
2023-02-09T22:37:20.559Z,12.10
2023-02-09T22:39:48.357Z,15.80
2023-02-09T22:42:16.230Z,13.10
2023-02-09T22:44:44.106Z,9.70
2023-02-09T22:47:12.094Z,11.00
2023-02-09T22:49:40.017Z,8.10
2023-02-09T22:52:08.787Z,13.60
2023-02-09T22:54:37.000Z,10.40
2023-02-09T22:57:04.877Z,15.90
2023-02-09T22:59:32.844Z,11.90
2023-02-09T23:02:00.669Z,11.30
2023-02-09T23:04:28.808Z,11.40
2023-02-09T23:06:56.612Z,12.20
2023-02-09T23:09:25.340Z,14.00
2023-02-09T23:11:53.934Z,15.10
2023-02-09T23:14:22.055Z,11.50
2023-02-09T23:16:49.911Z,12.50
2023-02-09T23:19:20.440Z,9.30
2023-02-09T23:21:51.558Z,10.50
2023-02-09T23:24:22.321Z,11.00
2023-02-09T23:26:51.658Z,10.50
2023-02-09T23:29:19.611Z,9.60
2023-02-09T23:31:48.485Z,12.40
2023-02-09T23:34:20.720Z,11.90
2023-02-09T23:36:49.161Z,11.80
2023-02-09T23:39:26.898Z,12.00
2023-02-09T23:41:54.709Z,14.10
2023-02-09T23:44:22.567Z,12.60
2023-02-09T23:46:50.403Z,10.30
2023-02-09T23:49:18.285Z,12.40
2023-02-09T23:51:46.833Z,11.30
2023-02-09T23:54:15.124Z,13.30
2023-02-09T23:56:44.048Z,13.20
2023-02-09T23:59:15.816Z,13.10
